Time;durP1;ratioP1;P1;durP2;ratioP2;P2;SDS_P1;SDS_P2;PMS_P1;PMS_P2;Temp;Humidity;BMP_temperature;BMP_pressure;BME280_temperature;BME280_humidity;BME280_pressure;Samples;Min_cycle;Max_cycle;Signal;HPM_P1;HPM_P2
2023/10/28 00:07:23;;;;;;;2.92;2.50;;;;;;;16.49;77.70;99128.53;20967849;28;20052;-72
2023/10/28 00:17:25;;;;;;;2.58;2.38;;;;;;;16.43;78.05;99127.38;20967389;28;20052;-72
2023/10/28 00:27:26;;;;;;;2.58;2.38;;;;;;;16.43;77.98;99129.22;20966518;28;21373;-73
2023/10/28 00:37:28;;;;;;;4.55;2.83;;;;;;;16.42;78.17;99124.88;20965439;28;20409;-72
2023/10/28 00:47:35;;;;;;;3.35;2.88;;;;;;;16.41;78.15;99139.31;20964515;28;20492;-72
2023/10/28 00:57:37;;;;;;;;;;;;;;;16.40;78.32;99137.63;20964771;28;20055;-72
2023/10/28 01:07:47;;;;;;;2.58;2.33;;;;;;;16.37;78.17;99145.00;20963361;28;20406;-72
2023/10/28 01:17:49;;;;;;;3.15;2.67;;;;;;;16.40;78.14;99153.75;20880249;28;20067;-73
2023/10/28 01:27:51;;;;;;;3.15;2.45;;;;;;;16.40;78.03;99137.63;20879149;28;20462;-73
2023/10/28 01:37:52;;;;;;;3.60;2.83;;;;;;;16.41;78.09;99144.69;20877051;28;20110;-72
2023/10/28 01:47:54;;;;;;;3.03;2.70;;;;;;;16.46;77.89;99151.19;20876267;28;20049;-73
2023/10/28 01:57:56;;;;;;;2.28;2.05;;;;;;;16.48;77.62;99142.97;20876907;28;20049;-72
2023/10/28 02:07:59;;;;;;;2.63;2.28;;;;;;;16.48;77.36;99143.81;20891563;28;20057;-72
2023/10/28 02:18:03;;;;;;;2.70;2.30;;;;;;;16.46;77.34;99147.69;20875802;28;20045;-72
2023/10/28 02:28:05;;;;;;;3.15;2.30;;;;;;;16.47;77.00;99144.81;20874832;28;20052;-73
2023/10/28 02:38:07;;;;;;;2.60;1.90;;;;;;;16.47;77.00;99133.25;20875279;28;20406;-73
2023/10/28 02:48:09;;;;;;;2.90;1.90;;;;;;;16.40;77.03;99134.94;20873718;28;20049;-73
2023/10/28 02:58:10;;;;;;;2.53;1.55;;;;;;;16.43;76.98;99148.03;20885783;28;20515;-72
2023/10/28 03:08:13;;;;;;;2.47;1.70;;;;;;;16.43;77.06;99154.22;20888729;28;20053;-72
2023/10/28 03:18:15;;;;;;;3.15;1.80;;;;;;;16.41;76.93;99156.25;20904505;28;20127;-72
2023/10/28 03:28:17;;;;;;;3.72;2.10;;;;;;;16.40;77.01;99146.50;20888141;28;20049;-72
2023/10/28 03:38:19;;;;;;;2.97;1.77;;;;;;;16.41;76.95;99144.69;20887993;28;20417;-72
2023/10/28 03:48:21;;;;;;;2.17;1.40;;;;;;;16.39;76.95;99150.19;20886457;28;20053;-72
2023/10/28 03:58:23;;;;;;;2.47;1.35;;;;;;;16.43;76.91;99145.34;20886305;28;20049;-72
2023/10/28 04:08:25;;;;;;;2.80;1.77;;;;;;;16.42;76.55;99146.34;20884490;28;20079;-72
2023/10/28 04:18:27;;;;;;;2.78;1.45;;;;;;;16.42;76.79;99152.53;20885355;28;20057;-72
2023/10/28 04:28:28;;;;;;;2.63;1.65;;;;;;;16.39;76.79;99155.56;20883589;28;20053;-72
2023/10/28 04:38:30;;;;;;;2.22;1.48;;;;;;;16.38;76.91;99146.69;20883145;28;20098;-72
2023/10/28 04:48:32;;;;;;;2.95;1.60;;;;;;;16.38;76.72;99146.69;20882063;28;20053;-71
2023/10/28 04:58:35;;;;;;;1.48;1.27;;;;;;;16.40;76.78;99143.81;20881890;28;20053;-69
2023/10/28 05:08:37;;;;;;;1.30;1.15;;;;;;;16.42;77.19;99152.53;20880706;28;20521;-71
2023/10/28 05:18:38;;;;;;;2.63;1.52;;;;;;;16.40;76.94;99145.69;20880694;28;20065;-73
2023/10/28 05:28:40;;;;;;;2.63;1.70;;;;;;;16.34;77.14;99155.25;20879174;28;20049;-72
2023/10/28 05:38:43;;;;;;;2.13;1.63;;;;;;;16.31;77.44;99156.41;20878162;28;20052;-72
2023/10/28 05:48:44;;;;;;;4.50;1.48;;;;;;;16.30;77.52;99159.28;20875435;28;20429;-73
2023/10/28 05:58:48;;;;;;;5.15;1.95;;;;;;;16.31;77.43;99159.09;20877211;28;20468;-73
2023/10/28 06:08:49;;;;;;;2.95;1.58;;;;;;;16.30;77.61;99165.47;20874745;28;20045;-72
2023/10/28 06:18:51;;;;;;;2.70;1.60;;;;;;;16.30;77.66;99176.22;20875679;28;20076;-72
2023/10/28 06:28:53;;;;;;;2.70;1.25;;;;;;;16.30;77.74;99184.28;20874620;28;20053;-72
2023/10/28 06:38:55;;;;;;;3.10;1.48;;;;;;;16.33;77.82;99193.84;20873566;28;20075;-72
2023/10/28 06:48:57;;;;;;;1.77;1.17;;;;;;;16.32;77.64;99198.38;20874032;28;20049;-72
2023/10/28 06:58:59;;;;;;;1.42;1.10;;;;;;;16.35;77.78;99208.81;20872574;28;20049;-72
2023/10/28 07:09:01;;;;;;;2.58;0.98;;;;;;;16.39;77.31;99211.97;20873871;28;20094;-72
2023/10/28 07:19:02;;;;;;;2.25;1.23;;;;;;;16.44;77.12;99228.41;20873275;28;20056;-73
2023/10/28 07:29:06;;;;;;;2.38;1.15;;;;;;;16.46;76.99;99228.28;20872950;28;20555;-73
2023/10/28 07:39:09;;;;;;;1.48;1.00;;;;;;;16.47;76.90;99240.69;20888600;28;20049;-72
2023/10/28 07:49:11;;;;;;;1.80;1.02;;;;;;;16.48;76.93;99239.69;20901416;28;20140;-72
2023/10/28 07:59:13;;;;;;;2.00;0.95;;;;;;;16.52;76.95;99265.19;20886556;28;20045;-73
2023/10/28 08:09:14;;;;;;;0.95;0.75;;;;;;;16.53;76.76;99272.25;20885655;28;20056;-72
2023/10/28 08:19:17;;;;;;;0.93;0.80;;;;;;;16.57;76.71;99262.84;20884863;28;20053;-72
2023/10/28 08:29:19;;;;;;;2.30;0.80;;;;;;;16.56;76.78;99263.00;20882172;28;20103;-73
2023/10/28 08:39:31;;;;;;;1.42;0.85;;;;;;;16.60;76.72;99267.88;20964550;28;20071;-73
2023/10/28 08:49:38;;;;;;;2.03;0.77;;;;;;;16.65;76.71;99276.28;20962622;28;20106;-72
2023/10/28 08:59:40;;;;;;;1.63;0.90;;;;;;;16.67;76.49;99270.75;20964580;28;20044;-73
2023/10/28 09:09:42;;;;;;;1.85;0.80;;;;;;;16.70;76.53;99273.09;20962488;28;20186;-73
2023/10/28 09:19:46;;;;;;;1.30;0.93;;;;;;;16.73;76.45;99267.38;20959702;28;20417;-73
2023/10/28 09:29:48;;;;;;;1.38;0.82;;;;;;;16.74;76.42;99284.34;20959798;28;20182;-72
2023/10/28 09:39:50;;;;;;;1.08;0.70;;;;;;;16.75;76.42;99291.38;20961134;28;20060;-72
2023/10/28 09:49:54;;;;;;;1.75;0.75;;;;;;;16.75;76.49;99289.56;20958018;28;20052;-72
2023/10/28 09:59:57;;;;;;;0.63;0.60;;;;;;;16.77;76.81;99300.13;20957839;28;20048;-72
2023/10/28 10:10:20;;;;;;;3.03;0.85;;;;;;;16.79;76.89;99320.47;20958574;28;20040;-73
2023/10/28 10:20:25;;;;;;;1.45;0.73;;;;;;;16.83;76.83;99304.84;20958988;28;20098;-73
2023/10/28 10:30:32;;;;;;;0.80;0.60;;;;;;;16.81;76.80;99299.63;20958486;28;20052;-73
2023/10/28 10:40:48;;;;;;;1.75;0.50;;;;;;;16.80;77.03;99294.44;20954886;28;20066;-73
2023/10/28 10:50:50;;;;;;;1.30;0.70;;;;;;;16.76;77.42;99293.06;20957465;28;20052;-73
2023/10/28 11:00:52;;;;;;;1.48;0.60;;;;;;;16.70;77.39;99296.44;20957114;28;20052;-72
2023/10/28 11:10:54;;;;;;;1.35;0.80;;;;;;;16.74;77.71;99292.41;20956984;28;20044;-72
2023/10/28 11:20:56;;;;;;;1.10;0.77;;;;;;;16.74;77.91;99289.72;20970069;28;20114;-72
2023/10/28 11:30:59;;;;;;;1.25;0.80;;;;;;;16.76;77.93;99275.09;20969451;28;20045;-73
2023/10/28 11:41:07;;;;;;;1.50;0.70;;;;;;;16.77;78.20;99278.63;20970031;28;20048;-73
2023/10/28 11:51:09;;;;;;;0.80;0.40;;;;;;;16.77;78.09;99274.09;20887305;28;20485;-73
2023/10/28 12:01:10;;;;;;;1.67;0.95;;;;;;;16.79;78.10;99272.09;20884763;28;20052;-73
2023/10/28 12:11:13;;;;;;;1.27;0.65;;;;;;;16.83;78.13;99272.59;20885553;28;20044;-73
2023/10/28 12:21:17;;;;;;;1.15;0.60;;;;;;;16.87;78.06;99270.38;20883435;28;20153;-72
2023/10/28 12:31:19;;;;;;;3.38;0.85;;;;;;;16.91;78.17;99274.41;20964545;28;20500;-72
2023/10/28 12:41:21;;;;;;;0.47;0.47;;;;;;;16.95;78.16;99265.00;20967079;28;20598;-73
2023/10/28 12:51:26;;;;;;;1.52;0.60;;;;;;;16.98;77.89;99269.25;20963460;28;20044;-72
2023/10/28 13:01:28;;;;;;;2.25;0.82;;;;;;;17.00;77.90;99269.91;20964733;28;20067;-73
2023/10/28 13:11:30;;;;;;;1.27;0.70;;;;;;;17.03;77.82;99277.63;20961770;28;20053;-72
2023/10/28 13:21:32;;;;;;;1.67;0.90;;;;;;;17.02;77.79;99265.19;20963036;28;20052;-73
2023/10/28 13:31:34;;;;;;;1.35;0.68;;;;;;;17.08;77.78;99284.19;20961756;28;20063;-73
2023/10/28 13:41:36;;;;;;;1.58;0.70;;;;;;;17.12;77.66;99287.34;20959614;28;20118;-73
2023/10/28 13:51:38;;;;;;;1.27;0.70;;;;;;;17.16;77.54;99290.56;20941862;28;20044;-72
2023/10/28 14:01:40;;;;;;;1.50;0.70;;;;;;;17.08;77.37;99283.34;20959870;28;20481;-72
2023/10/28 14:11:42;;;;;;;0.93;0.50;;;;;;;17.16;77.58;99287.88;20957588;28;20522;-72
2023/10/28 14:21:43;;;;;;;1.38;0.60;;;;;;;17.15;77.50;99286.19;20957205;28;20492;-73
2023/10/28 14:31:45;;;;;;;2.45;1.10;;;;;;;17.16;77.50;99293.25;20956143;28;20044;-73
2023/10/28 14:41:47;;;;;;;1.95;0.73;;;;;;;17.15;77.38;99291.56;20957512;28;20059;-73
2023/10/28 14:51:49;;;;;;;1.50;0.70;;;;;;;17.15;77.39;99287.00;20964957;28;20055;-72
2023/10/28 15:01:51;;;;;;;1.75;0.73;;;;;;;17.14;77.45;99288.03;20974063;28;20044;-72
2023/10/28 15:11:52;;;;;;;2.00;0.60;;;;;;;17.12;77.54;99287.34;20972968;28;20056;-72
2023/10/28 15:21:54;;;;;;;1.15;0.47;;;;;;;17.07;77.58;99277.13;20953955;28;20059;-69
2023/10/28 15:31:56;;;;;;;1.50;0.60;;;;;;;17.09;77.70;99282.31;20970963;28;20063;-72
2023/10/28 15:41:58;;;;;;;0.85;0.60;;;;;;;17.08;77.88;99286.03;20970665;28;20048;-73
2023/10/28 15:52:00;;;;;;;2.15;0.60;;;;;;;17.06;77.87;99282.66;20969913;28;20109;-72
2023/10/28 16:02:02;;;;;;;1.90;0.70;;;;;;;17.00;77.90;99288.72;20968272;28;20048;-73
2023/10/28 16:12:04;;;;;;;1.48;0.63;;;;;;;16.95;78.21;99286.50;20968150;28;20045;-72
2023/10/28 16:22:05;;;;;;;1.35;0.60;;;;;;;16.90;78.32;99276.28;20967709;28;20394;-73
2023/10/28 16:32:07;;;;;;;1.77;0.70;;;;;;;16.88;78.41;99275.63;20966492;28;20055;-72
2023/10/28 16:42:10;;;;;;;1.85;0.73;;;;;;;16.81;78.60;99263.88;20963594;28;20109;-72
2023/10/28 16:52:12;;;;;;;1.08;0.60;;;;;;;16.82;78.52;99266.38;20965430;28;20075;-72
2023/10/28 17:02:13;;;;;;;1.67;0.70;;;;;;;16.76;78.65;99267.03;20964468;28;20495;-72
2023/10/28 17:12:15;;;;;;;2.30;0.88;;;;;;;16.76;78.68;99276.94;20962847;28;20052;-73
2023/10/28 17:22:17;;;;;;;1.55;0.70;;;;;;;16.75;78.61;99291.38;20962926;28;20055;-72
2023/10/28 17:32:20;;;;;;;2.63;0.93;;;;;;;16.72;78.63;99294.41;20961620;28;20050;-72
2023/10/28 17:42:22;;;;;;;2.35;0.80;;;;;;;16.66;78.63;99288.69;20960793;28;20051;-73
2023/10/28 17:52:24;;;;;;;2.60;0.80;;;;;;;16.62;78.58;99287.34;20960465;28;20514;-73
2023/10/28 18:02:27;;;;;;;1.42;0.70;;;;;;;16.63;78.45;99305.16;20959454;28;20048;-72
2023/10/28 18:12:29;;;;;;;1.77;0.90;;;;;;;16.62;78.16;99298.09;20959409;28;20055;-72
2023/10/28 18:22:31;;;;;;;3.88;0.90;;;;;;;16.61;78.08;99298.28;20958101;28;20052;-72
2023/10/28 18:32:39;;;;;;;3.75;0.93;;;;;;;16.60;77.91;99288.56;20957812;28;20416;-72
2023/10/28 18:42:41;;;;;;;2.25;1.00;;;;;;;16.58;77.67;99291.38;20957069;28;20045;-72
2023/10/28 18:52:43;;;;;;;3.00;1.25;;;;;;;16.56;77.67;99287.19;20957189;28;20496;-73
2023/10/28 19:02:45;;;;;;;3.30;1.10;;;;;;;16.54;77.51;99303.47;20956913;28;20044;-72
2023/10/28 19:12:47;;;;;;;2.03;0.90;;;;;;;16.50;77.54;99321.75;20956581;28;20048;-72
2023/10/28 19:22:50;;;;;;;4.22;1.15;;;;;;;16.48;77.45;99306.84;20955994;28;20156;-72
2023/10/28 19:32:52;;;;;;;3.28;1.10;;;;;;;16.45;77.37;99281.13;20955808;28;20056;-73
2023/10/28 19:42:54;;;;;;;4.47;1.30;;;;;;;16.42;77.50;99273.41;20969697;28;20089;-72
2023/10/28 19:52:55;;;;;;;2.85;0.95;;;;;;;16.41;77.52;99265.53;20969827;28;20044;-72
2023/10/28 20:02:57;;;;;;;1.58;1.10;;;;;;;16.40;77.50;99277.28;20969150;28;20143;-73
2023/10/28 20:12:59;;;;;;;1.35;1.10;;;;;;;16.38;77.33;99280.97;20968298;28;20052;-72
2023/10/28 20:23:02;;;;;;;2.17;0.90;;;;;;;16.35;77.65;99286.69;20967614;28;20519;-73
2023/10/28 20:33:04;;;;;;;2.40;1.02;;;;;;;16.25;77.59;99251.06;20966861;28;20496;-73
2023/10/28 20:43:06;;;;;;;2.35;1.10;;;;;;;16.29;77.56;99241.66;20965465;28;20129;-73
2023/10/28 20:53:10;;;;;;;1.67;1.00;;;;;;;16.24;77.63;99222.53;20962914;28;20548;-72
2023/10/28 21:03:12;;;;;;;2.00;1.33;;;;;;;16.35;77.34;99216.84;20964560;28;20052;-73
2023/10/28 21:13:14;;;;;;;3.08;1.13;;;;;;;16.37;77.49;99201.41;20963643;28;20067;-73
2023/10/28 21:23:15;;;;;;;1.55;0.90;;;;;;;16.41;77.38;99193.03;20962629;28;20045;-72
2023/10/28 21:33:17;;;;;;;1.85;1.05;;;;;;;16.45;77.04;99171.00;20961676;28;20068;-73
2023/10/28 21:43:20;;;;;;;1.58;1.00;;;;;;;16.51;76.99;99156.06;20960818;28;20048;-72
2023/10/28 21:53:22;;;;;;;2.03;1.00;;;;;;;16.53;76.75;99144.13;20958423;28;20071;-72
2023/10/28 22:03:25;;;;;;;2.50;1.40;;;;;;;16.57;77.00;99133.91;20958871;28;20044;-72
2023/10/28 22:13:27;;;;;;;2.10;0.95;;;;;;;16.62;76.66;99120.78;20959315;28;20053;-72
2023/10/28 22:23:29;;;;;;;1.88;1.00;;;;;;;16.68;76.72;99101.28;20958711;28;20063;-72
2023/10/28 22:33:31;;;;;;;1.35;0.80;;;;;;;16.70;76.75;99068.88;20957981;28;20072;-72
2023/10/28 22:43:33;;;;;;;1.75;0.70;;;;;;;16.75;76.68;99069.19;20957763;28;20048;-72
2023/10/28 22:53:35;;;;;;;1.45;0.93;;;;;;;16.76;76.83;99052.06;20957107;28;20055;-72
2023/10/28 23:03:39;;;;;;;1.90;0.90;;;;;;;16.76;77.30;99029.72;20956923;28;20106;-71
2023/10/28 23:13:41;;;;;;;1.90;0.90;;;;;;;16.81;77.14;99016.63;20965832;28;20129;-72
2023/10/28 23:23:43;;;;;;;0.65;0.50;;;;;;;16.87;76.79;98978.28;20972432;28;20094;-72
2023/10/28 23:33:45;;;;;;;1.02;0.60;;;;;;;16.92;76.99;98922.16;20971232;28;20420;-72
2023/10/28 23:43:47;;;;;;;1.45;0.82;;;;;;;16.94;77.10;98946.13;20970293;28;20059;-71
2023/10/28 23:53:49;;;;;;;0.82;0.75;;;;;;;16.97;77.20;98924.28;20969937;28;20481;-72
